Pagina principale
METAR-TAF:

METAR-TAF

Aeroporti :

Aeroporto militare Cameri

Novara, Italia

latitudine: 45-31N, longitudine: 008-40E, altezza: 178 m

Osservazione

Il bollettino è stato emesso 22 ore e 9 minuti fa, alle 17:55 UTC
Vento 10 kt da est
Temperature 26°C
Umidità 65%
Pressione 1013 hPa
Visibilità 10 km o più
Nubi sparse ad un'altezza di 3500 ft

METAR: LIMN 221755Z 10010KT 9999 SCT035 26/19 Q1013 RMK SCT VIS MIN 9999 BLU

Ora: 18:04 (16:04 UTC)

Previsione

Il bollettino è stato emesso 23 ore e 4 minuti fa, alle 17:00 UTC
Previsione valida dal 22 alle 18 UTC al 23 alle 03 UTC
Vento 10 kt da est/sud-est
Visibilità 10 km o più
Poco nuvoloso ad un'altezza di 3000 ft
Probabilità 40% :
Temporaneamente
dal 22 alle 18 UTC al 22 alle 21 UTC
Vento 10 kt da est con raffiche fino a 20 kt

TAF: LIMN 221700Z 2218/2303 11010KT 9999 FEW030 PROB40 TEMPO 2218/2221 10010G20KT

Osservazioni e previsioni meteorologiche di più di 4000 aeroporti (messaggi METAR e TAF).

Le stazioni disponibili sono rappresentate dai dischi gialli e rossi sulla carta.

Puntare il mouse per vedere il nome della stazione.

Clicca sopra per visualizzare le osservazioni e previsioni meteorologiche.

Per cambiare la mappa : fare clic sui pulsanti verdi con una croce nera per ingrandire, il pulsante verde con un trattino per diminuire, o sulla freccia verde per le mappe adiacenti.


METAR-TAF: